Time;durP1;ratioP1;P1;durP2;ratioP2;P2;SDS_P1;SDS_P2;PMS_P1;PMS_P2;Temp;Humidity;BMP_temperature;BMP_pressure;BME280_temperature;BME280_humidity;BME280_pressure;Samples;Min_cycle;Max_cycle;Signal;HPM_P1;HPM_P2
2022/07/01 00:00:16;;;;;;;8.07;5.60;;;15.60;91.20;;;;;;4995468;28;20043;-83
2022/07/01 00:02:43;;;;;;;6.53;4.47;;;15.60;91.20;;;;;;4993495;28;20047;-81
2022/07/01 00:05:10;;;;;;;6.72;4.20;;;15.60;91.50;;;;;;4980257;28;20046;-82
2022/07/01 00:07:46;;;;;;;6.07;4.20;;;15.60;91.20;;;;;;4971671;28;20055;-82
2022/07/01 00:10:17;;;;;;;6.97;4.57;;;15.60;91.20;;;;;;4986485;28;20058;-81
2022/07/01 00:12:46;;;;;;;7.45;5.47;;;15.50;91.10;;;;;;4971868;28;20085;-82
2022/07/01 00:15:13;;;;;;;8.43;5.95;;;15.50;91.20;;;;;;4990902;28;20061;-82
2022/07/01 00:17:40;;;;;;;7.57;4.63;;;15.50;91.20;;;;;;5001760;28;20050;-81
2022/07/01 00:20:08;;;;;;;7.85;4.10;;;15.50;91.20;;;;;;4990178;28;20046;-81
2022/07/01 00:22:36;;;;;;;7.72;4.70;;;15.50;91.20;;;;;;4991548;28;20046;-83
2022/07/01 00:25:03;;;;;;;6.75;4.97;;;15.50;91.20;;;;;;4988635;28;20049;-82
2022/07/01 00:27:30;;;;;;;7.38;5.38;;;15.60;91.20;;;;;;5007502;28;20081;-82
2022/07/01 00:29:57;;;;;;;8.18;5.45;;;15.60;91.20;;;;;;4991714;28;20097;-82
2022/07/01 00:32:24;;;;;;;10.18;6.47;;;15.50;91.10;;;;;;4993973;28;20156;-83
2022/07/01 00:34:51;;;;;;;7.03;4.80;;;15.50;91.20;;;;;;5002320;28;20226;-83
2022/07/01 00:37:18;;;;;;;8.18;5.55;;;15.40;91.20;;;;;;5011052;28;20063;-82
2022/07/01 00:39:45;;;;;;;7.82;5.72;;;15.50;91.20;;;;;;5007685;28;20051;-82
2022/07/01 00:42:12;;;;;;;7.70;5.65;;;15.50;91.20;;;;;;4993085;28;20046;-82
2022/07/01 00:44:39;;;;;;;6.82;5.07;;;15.50;91.10;;;;;;4988282;28;20058;-82
2022/07/01 00:47:11;;;;;;;7.35;5.15;;;15.40;91.10;;;;;;4959586;28;20081;-82
2022/07/01 00:49:39;;;;;;;9.60;6.10;;;15.40;91.10;;;;;;4993496;28;20054;-82
2022/07/01 00:52:08;;;;;;;7.30;5.03;;;15.40;91.20;;;;;;4994390;28;20479;-84
2022/07/01 00:54:37;;;;;;;6.53;4.60;;;15.40;91.10;;;;;;4992407;28;20046;-83
2022/07/01 00:57:11;;;;;;;7.00;4.85;;;15.50;91.10;;;;;;5009520;28;20438;-83
2022/07/01 00:59:39;;;;;;;7.50;5.20;;;15.50;91.10;;;;;;4993137;28;20483;-83
2022/07/01 01:02:08;;;;;;;8.05;5.32;;;15.60;91.20;;;;;;4973919;28;20035;-83
2022/07/01 01:04:35;;;;;;;6.38;4.80;;;15.60;91.10;;;;;;4988392;28;20073;-83
2022/07/01 01:07:03;;;;;;;8.77;6.13;;;15.60;91.10;;;;;;4995734;28;20414;-81
2022/07/01 01:09:30;;;;;;;8.88;5.63;;;15.60;91.10;;;;;;4997388;28;20143;-83
2022/07/01 01:11:58;;;;;;;8.32;5.88;;;15.60;91.10;;;;;;4997163;28;20050;-82
2022/07/01 01:14:25;;;;;;;8.93;6.13;;;15.60;91.10;;;;;;4987029;28;20046;-82
2022/07/01 01:16:53;;;;;;;10.40;7.13;;;15.60;91.10;;;;;;5010727;28;20105;-82
2022/07/01 01:19:20;;;;;;;8.70;6.07;;;15.60;91.10;;;;;;5001719;28;20038;-82
2022/07/01 01:21:47;;;;;;;11.43;7.28;;;15.60;91.10;;;;;;5005776;28;20042;-82
2022/07/01 01:24:14;;;;;;;12.35;8.00;;;15.60;91.00;;;;;;4998608;28;20117;-83
2022/07/01 01:26:41;;;;;;;11.57;7.97;;;15.60;91.00;;;;;;4981635;28;20167;-82
2022/07/01 01:29:08;;;;;;;13.68;8.70;;;15.60;91.00;;;;;;4977875;28;20395;-82
2022/07/01 01:31:35;;;;;;;13.27;9.32;;;15.60;91.00;;;;;;4996774;28;20077;-83
2022/07/01 01:34:03;;;;;;;15.18;9.10;;;15.60;91.00;;;;;;5004017;28;20112;-82
2022/07/01 01:36:30;;;;;;;15.57;10.30;;;15.60;91.00;;;;;;4993813;28;20493;-82
2022/07/01 01:39:01;;;;;;;19.10;11.88;;;15.60;91.10;;;;;;5005565;28;20050;-82
2022/07/01 01:41:28;;;;;;;22.00;13.02;;;15.50;91.10;;;;;;4993455;28;20047;-82
2022/07/01 01:43:57;;;;;;;19.05;12.57;;;15.40;91.10;;;;;;4989974;28;20117;-81
2022/07/01 01:46:25;;;;;;;17.40;10.77;;;15.40;91.10;;;;;;4985515;28;20402;-82
2022/07/01 01:48:52;;;;;;;16.55;10.93;;;15.40;91.20;;;;;;4987564;28;20077;-83
2022/07/01 01:51:19;;;;;;;19.48;12.35;;;15.40;91.10;;;;;;5001636;28;20084;-83
2022/07/01 01:53:46;;;;;;;20.38;13.90;;;15.40;91.10;;;;;;4992074;28;20106;-83
2022/07/01 01:56:13;;;;;;;17.70;11.68;;;15.30;91.10;;;;;;4981680;28;20125;-82
2022/07/01 01:58:44;;;;;;;20.48;13.93;;;15.30;91.10;;;;;;4973132;28;20054;-83
2022/07/01 02:01:11;;;;;;;22.50;14.98;;;15.30;91.10;;;;;;5012956;28;20056;-83
2022/07/01 02:03:40;;;;;;;19.65;13.55;;;15.20;91.10;;;;;;5002436;28;20061;-83
2022/07/01 02:06:11;;;;;;;21.88;14.88;;;15.20;91.10;;;;;;5002735;28;20046;-83
2022/07/01 02:08:39;;;;;;;23.83;15.60;;;15.20;91.10;;;;;;4981764;28;20462;-83
2022/07/01 02:11:06;;;;;;;22.50;14.88;;;15.20;91.10;;;;;;5002189;28;20061;-84
2022/07/01 02:13:35;;;;;;;25.25;16.55;;;15.20;91.10;;;;;;4996791;28;20046;-84
2022/07/01 02:16:02;;;;;;;22.05;15.23;;;15.20;91.10;;;;;;5000129;28;20042;-84
2022/07/01 02:18:30;;;;;;;23.00;14.55;;;15.20;91.10;;;;;;4986134;28;20046;-84
2022/07/01 02:20:57;;;;;;;23.20;15.50;;;15.20;91.10;;;;;;4990761;28;20115;-83
2022/07/01 02:23:24;;;;;;;24.77;16.42;;;15.20;91.10;;;;;;4980566;28;20414;-83
2022/07/01 02:25:51;;;;;;;24.88;16.75;;;15.10;91.10;;;;;;5004998;28;20417;-83
2022/07/01 02:28:18;;;;;;;23.10;15.93;;;15.10;91.10;;;;;;4993560;28;20093;-84
2022/07/01 02:30:45;;;;;;;25.48;16.70;;;15.10;91.10;;;;;;4993605;28;20133;-83
2022/07/01 02:33:12;;;;;;;23.00;16.20;;;15.10;91.10;;;;;;4972256;28;20042;-84
2022/07/01 02:35:40;;;;;;;23.27;15.68;;;15.20;91.10;;;;;;4991923;28;20525;-84
2022/07/01 02:38:15;;;;;;;24.75;16.90;;;15.20;91.10;;;;;;4993777;28;20038;-82
2022/07/01 02:40:43;;;;;;;23.10;16.15;;;15.10;91.10;;;;;;4995935;28;20046;-84
2022/07/01 02:43:10;;;;;;;22.70;16.40;;;15.10;91.10;;;;;;4976031;28;20077;-84
2022/07/01 02:45:37;;;;;;;25.40;17.33;;;15.10;91.10;;;;;;4993395;28;20046;-83
2022/07/01 02:48:04;;;;;;;23.60;17.75;;;15.10;91.10;;;;;;5001982;28;20498;-84
2022/07/01 02:50:31;;;;;;;25.55;17.90;;;15.10;91.10;;;;;;4967556;28;20069;-83
2022/07/01 02:52:58;;;;;;;23.88;16.45;;;15.10;91.10;;;;;;4977063;28;20046;-83
2022/07/01 02:55:26;;;;;;;23.80;16.38;;;15.00;91.10;;;;;;4980466;28;20047;-83
2022/07/01 02:57:53;;;;;;;27.35;18.15;;;15.00;91.10;;;;;;4995013;28;20035;-84
2022/07/01 03:00:21;;;;;;;23.60;16.35;;;15.00;91.10;;;;;;4996195;28;20043;-84
2022/07/01 03:02:48;;;;;;;23.00;15.88;;;15.00;91.10;;;;;;4979535;28;20039;-83
2022/07/01 03:05:19;;;;;;;23.65;16.40;;;14.90;91.10;;;;;;4992989;28;20133;-83
2022/07/01 03:07:46;;;;;;;25.10;16.50;;;14.90;91.10;;;;;;4976794;28;20435;-84
2022/07/01 03:10:13;;;;;;;23.30;15.05;;;14.90;91.20;;;;;;4992874;28;20062;-83
2022/07/01 03:12:40;;;;;;;19.00;12.57;;;14.90;91.20;;;;;;4991099;28;20440;-83
2022/07/01 03:15:12;;;;;;;19.83;13.00;;;14.90;91.20;;;;;;4992781;28;20066;-83
2022/07/01 03:17:45;;;;;;;21.20;13.45;;;15.00;91.40;;;;;;4992561;28;20057;-83
2022/07/01 03:20:14;;;;;;;18.95;13.68;;;15.00;91.20;;;;;;4975565;28;20039;-84
2022/07/01 03:22:43;;;;;;;20.40;14.13;;;14.90;91.10;;;;;;4986486;28;20042;-83
2022/07/01 03:25:11;;;;;;;17.67;12.85;;;14.90;91.20;;;;;;4992085;28;20046;-83
2022/07/01 03:27:44;;;;;;;17.10;12.25;;;14.90;91.20;;;;;;4991972;28;20042;-83
2022/07/01 03:30:13;;;;;;;19.00;12.75;;;14.90;91.20;;;;;;4997897;28;20050;-83
2022/07/01 03:32:41;;;;;;;15.25;10.88;;;14.90;91.20;;;;;;4991635;28;20053;-83
2022/07/01 03:37:55;;;;;;;17.08;10.70;;;14.90;91.30;;;;;;5015532;28;20498;-83
2022/07/01 03:40:22;;;;;;;16.88;11.45;;;14.90;91.30;;;;;;4992276;28;20101;-83
2022/07/01 03:42:49;;;;;;;15.07;10.18;;;14.90;91.30;;;;;;4998239;28;20108;-83
2022/07/01 03:45:16;;;;;;;15.18;10.20;;;14.90;91.30;;;;;;4989004;28;20113;-83
2022/07/01 03:47:50;;;;;;;15.15;10.00;;;14.90;91.30;;;;;;4992693;28;20042;-83
2022/07/01 03:50:20;;;;;;;15.48;10.23;;;14.80;91.20;;;;;;5008670;28;20069;-83
2022/07/01 03:52:47;;;;;;;14.63;9.57;;;14.80;91.30;;;;;;4993689;28;20053;-84
2022/07/01 03:55:16;;;;;;;14.52;9.48;;;14.80;91.30;;;;;;4983323;28;20046;-84
2022/07/01 03:57:44;;;;;;;15.57;9.50;;;14.80;91.30;;;;;;4992333;28;20046;-84
2022/07/01 04:00:12;;;;;;;17.20;9.95;;;14.80;91.30;;;;;;4976170;28;20069;-84
2022/07/01 04:02:45;;;;;;;15.50;9.75;;;14.80;91.30;;;;;;4991884;28;20038;-83
2022/07/01 04:05:12;;;;;;;16.33;9.95;;;14.80;91.20;;;;;;4944201;28;20062;-83
2022/07/01 04:07:39;;;;;;;14.40;9.57;;;14.90;91.30;;;;;;5003632;28;20069;-84
2022/07/01 04:10:07;;;;;;;14.63;9.75;;;14.90;91.20;;;;;;4993452;28;20124;-84
2022/07/01 04:12:34;;;;;;;15.90;9.40;;;15.00;91.20;;;;;;4995066;28;20070;-83
2022/07/01 04:15:02;;;;;;;12.80;8.85;;;15.00;91.10;;;;;;5013558;28;20137;-83
2022/07/01 04:17:29;;;;;;;14.95;9.63;;;15.10;91.10;;;;;;5005840;28;20050;-83
2022/07/01 04:19:56;;;;;;;13.77;9.15;;;15.10;91.10;;;;;;4986824;28;20038;-82
2022/07/01 04:22:32;;;;;;;17.27;9.32;;;15.20;91.00;;;;;;5014694;28;20042;-83
2022/07/01 04:25:00;;;;;;;14.82;9.38;;;15.30;91.00;;;;;;5002876;28;20034;-84
2022/07/01 04:27:27;;;;;;;18.73;9.85;;;15.30;91.00;;;;;;4997737;28;20081;-84
2022/07/01 04:29:55;;;;;;;17.40;9.32;;;15.30;90.90;;;;;;5001055;28;20771;-84
2022/07/01 04:32:22;;;;;;;16.65;10.43;;;15.30;90.90;;;;;;5005421;28;20382;-84
2022/07/01 04:34:50;;;;;;;14.75;9.55;;;15.30;90.80;;;;;;4999331;28;20046;-77
2022/07/01 04:37:17;;;;;;;14.13;9.15;;;15.30;90.80;;;;;;4993251;28;20047;-77
2022/07/01 04:39:44;;;;;;;15.20;8.95;;;15.40;90.80;;;;;;4983082;28;20137;-76
2022/07/01 04:42:12;;;;;;;19.10;9.52;;;15.40;90.70;;;;;;4998068;28;20070;-76
2022/07/01 04:44:39;;;;;;;19.58;11.30;;;15.50;90.70;;;;;;4998478;28;20046;-76
2022/07/01 04:47:10;;;;;;;19.20;10.77;;;15.40;90.60;;;;;;4983983;28;20054;-76
2022/07/01 04:49:37;;;;;;;19.02;11.10;;;15.40;90.60;;;;;;4998545;28;20084;-76
2022/07/01 04:52:04;;;;;;;17.65;10.90;;;15.40;90.60;;;;;;4981865;28;20449;-77
2022/07/01 04:54:31;;;;;;;18.00;10.73;;;15.40;90.60;;;;;;4994666;28;20050;-81
2022/07/01 04:56:58;;;;;;;16.48;10.32;;;15.40;90.60;;;;;;5004907;28;20045;-81
2022/07/01 04:59:25;;;;;;;15.73;9.05;;;15.40;90.60;;;;;;4997731;28;20043;-80
2022/07/01 05:01:52;;;;;;;19.30;10.65;;;15.40;90.60;;;;;;4972523;28;20120;-85
2022/07/01 05:04:20;;;;;;;18.42;10.65;;;15.40;90.50;;;;;;4977080;28;20093;-85
2022/07/01 05:06:47;;;;;;;17.52;10.30;;;15.40;90.50;;;;;;4996273;28;20047;-86
2022/07/01 05:09:14;;;;;;;15.75;9.93;;;15.40;90.60;;;;;;4980271;28;20042;-86
2022/07/01 05:11:41;;;;;;;16.35;9.15;;;15.40;90.50;;;;;;4988349;28;20065;-85
2022/07/01 05:14:08;;;;;;;15.30;9.18;;;15.40;90.50;;;;;;5002208;28;20046;-85
2022/07/01 05:16:36;;;;;;;17.58;9.60;;;15.40;90.50;;;;;;4981304;28;20617;-85
2022/07/01 05:22:01;;;;;;;19.13;10.57;;;15.40;90.50;;;;;;5013176;28;20105;-85
2022/07/01 05:24:31;;;;;;;18.00;10.45;;;15.40;90.40;;;;;;4986311;28;20104;-85
2022/07/01 05:27:00;;;;;;;14.02;9.38;;;15.30;90.70;;;;;;4983021;28;20050;-85
2022/07/01 05:29:28;;;;;;;19.00;9.65;;;15.30;90.50;;;;;;4984565;28;20062;-84
2022/07/01 05:31:58;;;;;;;14.07;9.10;;;15.40;90.50;;;;;;4986886;28;20108;-85
2022/07/01 05:34:25;;;;;;;16.70;9.80;;;15.40;90.40;;;;;;4983117;28;20081;-85
2022/07/01 05:36:52;;;;;;;17.52;9.98;;;15.40;90.40;;;;;;5016644;28;20179;-84
2022/07/01 05:39:19;;;;;;;16.13;10.05;;;15.40;90.30;;;;;;5016257;28;20050;-86
2022/07/01 05:41:46;;;;;;;15.90;9.95;;;15.30;90.30;;;;;;5010909;28;20066;-86
2022/07/01 05:44:16;;;;;;;16.80;10.15;;;15.40;90.30;;;;;;4992650;28;20482;-79
2022/07/01 05:46:43;;;;;;;17.38;10.75;;;15.40;90.30;;;;;;4975659;28;20046;-79
2022/07/01 05:49:11;;;;;;;18.10;10.23;;;15.40;90.20;;;;;;4992108;28;20050;-78
2022/07/01 05:51:46;;;;;;;13.43;8.57;;;15.40;90.20;;;;;;4996258;28;20067;-80
2022/07/01 05:54:13;;;;;;;16.88;9.00;;;15.50;90.20;;;;;;4996192;28;20042;-80
2022/07/01 05:56:40;;;;;;;16.27;9.48;;;15.50;90.10;;;;;;4995244;28;20494;-79
2022/07/01 05:59:08;;;;;;;17.15;8.80;;;15.60;90.10;;;;;;4979927;28;20050;-79
2022/07/01 06:01:35;;;;;;;14.80;8.27;;;15.60;90.10;;;;;;4988343;28;20140;-79
2022/07/01 06:04:02;;;;;;;16.55;9.65;;;15.60;90.00;;;;;;4996238;28;20138;-80
2022/07/01 06:06:34;;;;;;;15.98;9.77;;;15.60;89.90;;;;;;4975519;28;20057;-79
2022/07/01 06:09:02;;;;;;;15.43;8.75;;;15.60;89.80;;;;;;4983997;28;20086;-78
2022/07/01 06:11:31;;;;;;;15.98;10.25;;;15.70;89.90;;;;;;4988033;28;20061;-79
2022/07/01 06:13:58;;;;;;;14.98;8.38;;;15.70;89.70;;;;;;4985514;28;20053;-79
2022/07/01 06:16:25;;;;;;;17.05;9.20;;;15.70;89.60;;;;;;5000045;28;20061;-78
2022/07/01 06:18:57;;;;;;;15.32;8.23;;;15.70;89.40;;;;;;5000780;28;20506;-77
2022/07/01 06:21:24;;;;;;;17.25;9.32;;;15.80;89.50;;;;;;4977215;28;20129;-77
2022/07/01 06:23:51;;;;;;;16.60;9.52;;;15.80;89.20;;;;;;4984485;28;20049;-78
2022/07/01 06:26:18;;;;;;;15.02;8.88;;;15.70;89.20;;;;;;5006336;28;20042;-81
2022/07/01 06:28:45;;;;;;;14.43;8.68;;;15.80;89.20;;;;;;4968648;28;20409;-87
2022/07/01 06:31:12;;;;;;;11.50;7.10;;;15.80;89.20;;;;;;4968979;28;20055;-87
2022/07/01 06:33:39;;;;;;;16.17;9.43;;;15.80;89.20;;;;;;4986092;28;20047;-86
2022/07/01 06:36:09;;;;;;;13.77;8.20;;;15.80;89.10;;;;;;4987703;28;20066;-87
2022/07/01 06:38:36;;;;;;;16.75;9.48;;;15.80;89.00;;;;;;5008598;28;20042;-88
2022/07/01 06:43:51;;;;;;;13.63;8.43;;;15.90;88.90;;;;;;4997006;28;20046;-86
2022/07/01 06:46:18;;;;;;;14.73;9.02;;;15.90;89.00;;;;;;4993774;28;20045;-87
2022/07/01 06:48:51;;;;;;;15.13;9.10;;;15.90;88.80;;;;;;4980561;28;20047;-86
2022/07/01 06:51:22;;;;;;;13.95;8.70;;;16.00;88.80;;;;;;5005841;28;20035;-88
2022/07/01 06:53:49;;;;;;;13.05;7.75;;;16.00;88.70;;;;;;4991165;28;20066;-88
2022/07/01 06:56:20;;;;;;;13.23;7.68;;;16.10;88.60;;;;;;5008943;28;20383;-87
2022/07/01 06:58:49;;;;;;;15.63;7.70;;;16.20;88.60;;;;;;4994118;28;20053;-88
2022/07/01 07:01:16;;;;;;;13.10;6.85;;;16.20;88.50;;;;;;4994136;28;20050;-87
2022/07/01 07:03:46;;;;;;;11.90;7.18;;;16.30;88.50;;;;;;4978116;28;20122;-86
2022/07/01 07:06:15;;;;;;;12.38;7.00;;;16.30;88.20;;;;;;4993141;28;20042;-85
2022/07/01 07:08:42;;;;;;;14.88;8.73;;;16.30;88.00;;;;;;4966824;28;20073;-87
2022/07/01 07:11:09;;;;;;;13.70;7.85;;;16.20;87.90;;;;;;4998259;28;20062;-86
2022/07/01 07:13:37;;;;;;;14.90;8.43;;;16.20;88.10;;;;;;4978056;28;20053;-87
2022/07/01 07:16:07;;;;;;;12.60;6.68;;;16.10;88.00;;;;;;4978123;28;20141;-87
2022/07/01 07:18:34;;;;;;;13.82;7.85;;;16.20;87.90;;;;;;4990725;28;20493;-87
2022/07/01 07:21:04;;;;;;;15.32;8.23;;;16.40;87.70;;;;;;4997963;28;20081;-86
2022/07/01 07:23:31;;;;;;;15.80;7.50;;;16.50;87.30;;;;;;4977419;28;20578;-87
2022/07/01 07:26:00;;;;;;;15.27;7.60;;;16.60;87.20;;;;;;5002504;28;20539;-88
2022/07/01 07:28:28;;;;;;;13.65;7.68;;;16.70;86.90;;;;;;4976207;28;20082;-88
2022/07/01 07:30:55;;;;;;;15.15;8.23;;;16.90;86.70;;;;;;5000041;28;20050;-88
2022/07/01 07:33:22;;;;;;;14.70;8.95;;;17.00;86.30;;;;;;4990487;28;20114;-87
2022/07/01 07:35:49;;;;;;;13.68;8.35;;;17.10;86.00;;;;;;4997363;28;20153;-88
2022/07/01 07:38:16;;;;;;;16.63;8.57;;;17.30;85.70;;;;;;4993296;28;20062;-86
2022/07/01 07:40:43;;;;;;;12.98;7.60;;;17.50;85.40;;;;;;5005766;28;20092;-84
2022/07/01 07:43:11;;;;;;;12.80;7.88;;;17.60;85.10;;;;;;4979553;28;20047;-82
2022/07/01 07:45:38;;;;;;;11.88;7.60;;;17.80;84.80;;;;;;4973867;28;20066;-83
2022/07/01 07:48:06;;;;;;;15.50;8.63;;;17.90;84.50;;;;;;5001084;28;20114;-84
2022/07/01 07:50:33;;;;;;;12.48;7.95;;;18.10;83.90;;;;;;4979216;28;20065;-84
2022/07/01 07:53:00;;;;;;;14.13;8.75;;;18.20;83.70;;;;;;4975509;28;20101;-84
2022/07/01 07:55:28;;;;;;;13.27;8.05;;;18.40;83.10;;;;;;4992878;28;20066;-83
2022/07/01 07:57:55;;;;;;;13.90;7.57;;;18.50;82.70;;;;;;4973032;28;20042;-83
2022/07/01 08:00:22;;;;;;;13.93;7.72;;;18.60;82.80;;;;;;4998137;28;20496;-83
2022/07/01 08:02:49;;;;;;;12.30;8.50;;;18.60;82.20;;;;;;4977956;28;20050;-83
2022/07/01 08:05:16;;;;;;;12.95;8.98;;;18.50;81.00;;;;;;5005878;28;20043;-83
2022/07/01 08:07:43;;;;;;;14.68;9.02;;;18.30;81.20;;;;;;4994267;28;20585;-85
2022/07/01 08:10:12;;;;;;;13.25;8.73;;;18.10;81.30;;;;;;5000481;28;20073;-84
2022/07/01 08:12:40;;;;;;;13.95;7.80;;;18.00;81.50;;;;;;4976982;28;20054;-84
2022/07/01 08:15:10;;;;;;;9.63;6.78;;;17.90;81.50;;;;;;4977477;28;20043;-83
2022/07/01 08:17:37;;;;;;;10.02;7.32;;;17.90;81.50;;;;;;4983380;28;20042;-83
2022/07/01 08:20:05;;;;;;;9.55;6.35;;;18.00;81.60;;;;;;4986654;28;20046;-84
2022/07/01 08:22:33;;;;;;;11.52;7.95;;;18.00;81.10;;;;;;4987998;28;20042;-84
2022/07/01 08:25:00;;;;;;;8.98;6.70;;;18.00;80.50;;;;;;4969975;28;20117;-84
2022/07/01 08:27:27;;;;;;;10.57;5.32;;;18.00;80.40;;;;;;4989166;28;20498;-84
2022/07/01 08:29:54;;;;;;;9.10;5.88;;;18.10;80.50;;;;;;4990665;28;20050;-84
2022/07/01 08:32:22;;;;;;;11.10;6.57;;;18.20;80.10;;;;;;4997819;28;20498;-84
2022/07/01 08:34:49;;;;;;;10.02;6.15;;;18.30;79.80;;;;;;4996464;28;20141;-82
2022/07/01 08:37:16;;;;;;;7.70;5.05;;;18.40;79.60;;;;;;4992135;28;20053;-87
2022/07/01 08:39:45;;;;;;;8.10;5.75;;;18.40;79.30;;;;;;4987311;28;20110;-86
2022/07/01 08:42:12;;;;;;;6.95;4.30;;;18.40;79.00;;;;;;4991200;28;20038;-87
2022/07/01 08:44:39;;;;;;;6.97;3.88;;;18.40;79.20;;;;;;5001209;28;20217;-87
2022/07/01 08:47:13;;;;;;;6.22;3.58;;;18.50;79.20;;;;;;5006887;28;20137;-87
2022/07/01 08:49:40;;;;;;;4.45;2.60;;;18.60;79.10;;;;;;4976220;28;20502;-86
2022/07/01 08:52:09;;;;;;;6.13;2.63;;;18.80;78.80;;;;;;5005876;28;20042;-85
2022/07/01 08:54:38;;;;;;;4.47;2.65;;;19.00;78.50;;;;;;5000098;28;20138;-84
2022/07/01 08:57:07;;;;;;;7.03;2.92;;;19.30;77.60;;;;;;4997321;28;20489;-86
2022/07/01 08:59:34;;;;;;;5.13;1.95;;;19.40;76.90;;;;;;4980568;28;20290;-87
2022/07/01 09:02:05;;;;;;;4.30;2.00;;;19.50;76.60;;;;;;5011304;28;20049;-86
2022/07/01 09:04:33;;;;;;;3.85;1.60;;;19.50;76.70;;;;;;4997410;28;20053;-84
2022/07/01 09:07:04;;;;;;;4.97;1.50;;;19.70;76.90;;;;;;4998895;28;20042;-83
2022/07/01 09:09:38;;;;;;;3.75;1.10;;;19.90;77.10;;;;;;4985281;28;20100;-84
2022/07/01 09:12:06;;;;;;;3.00;0.93;;;20.10;75.90;;;;;;5003292;28;20104;-84
2022/07/01 09:14:34;;;;;;;6.63;1.52;;;20.00;75.20;;;;;;4997881;28;20061;-85
2022/07/01 09:17:05;;;;;;;4.32;1.17;;;19.80;74.60;;;;;;4969789;28;20136;-84
2022/07/01 09:19:37;;;;;;;2.38;1.08;;;19.40;73.90;;;;;;4989255;28;20046;-85
2022/07/01 09:22:12;;;;;;;2.80;1.23;;;19.20;74.20;;;;;;4991984;28;20038;-84
2022/07/01 09:24:42;;;;;;;3.38;0.80;;;19.10;74.70;;;;;;4982896;28;20052;-85
2022/07/01 09:27:16;;;;;;;3.00;0.95;;;19.20;74.90;;;;;;4990565;28;20050;-84
2022/07/01 09:29:46;;;;;;;1.23;0.70;;;19.20;74.00;;;;;;4992235;28;20054;-85
2022/07/01 09:32:20;;;;;;;1.83;0.70;;;19.30;73.50;;;;;;4978188;28;20053;-84
2022/07/01 09:34:49;;;;;;;2.83;0.70;;;19.30;73.50;;;;;;4977818;28;20046;-85
2022/07/01 09:37:22;;;;;;;1.67;0.60;;;19.30;73.00;;;;;;4991989;28;20038;-85
2022/07/01 09:39:50;;;;;;;;;;;19.30;72.90;;;;;;4979767;28;20052;-85
2022/07/01 09:42:18;;;;;;;1.70;0.50;;;19.30;71.60;;;;;;5008529;28;19922;-84
2022/07/01 09:44:56;;;;;;;1.73;0.50;;;19.40;71.70;;;;;;4999741;28;20174;-81
2022/07/01 09:47:28;;;;;;;;;;;19.80;71.10;;;;;;4985974;28;20056;-81
2022/07/01 09:49:56;;;;;;;1.27;0.52;;;20.10;71.20;;;;;;4980812;28;19925;-81
2022/07/01 09:52:24;;;;;;;3.05;0.45;;;20.30;70.10;;;;;;4985787;28;20056;-81
2022/07/01 09:54:52;;;;;;;1.45;0.50;;;20.40;69.00;;;;;;4992762;28;20104;-81
2022/07/01 09:57:21;;;;;;;1.35;0.32;;;20.40;69.40;;;;;;5004887;28;20454;-80
2022/07/01 09:59:49;;;;;;;0.47;0.30;;;20.60;69.40;;;;;;5000798;28;20057;-81
2022/07/01 10:02:21;;;;;;;1.48;0.50;;;20.80;68.60;;;;;;4996986;28;20498;-81
2022/07/01 10:04:53;;;;;;;0.95;0.45;;;20.90;67.80;;;;;;4993088;28;20587;-81
2022/07/01 10:07:58;;;;;;;2.83;0.52;;;20.90;67.10;;;;;;4994216;28;20074;-81
2022/07/01 10:10:28;;;;;;;1.92;0.60;;;20.80;66.80;;;;;;4999462;28;20054;-81
2022/07/01 10:12:56;;;;;;;1.77;0.30;;;20.60;66.80;;;;;;4982765;28;20441;-82
2022/07/01 10:15:24;;;;;;;0.82;0.40;;;20.50;66.20;;;;;;4967003;28;20042;-82
2022/07/01 10:17:55;;;;;;;1.75;0.40;;;20.50;65.80;;;;;;4990370;28;20041;-81
2022/07/01 10:20:28;;;;;;;2.50;0.70;;;20.50;66.20;;;;;;4991100;28;20046;-81
2022/07/01 10:23:06;;;;;;;1.58;0.55;;;20.60;65.80;;;;;;4981715;28;20042;-82
2022/07/01 10:25:46;;;;;;;0.60;0.30;;;20.80;66.00;;;;;;4994375;28;20047;-82
2022/07/01 10:28:17;;;;;;;0.75;0.40;;;20.80;65.80;;;;;;4998800;28;20042;-82
2022/07/01 10:30:53;;;;;;;0.75;0.40;;;20.90;66.60;;;;;;4991337;28;20053;-82
2022/07/01 10:33:48;;;;;;;1.35;0.30;;;21.00;66.00;;;;;;4985471;28;20050;-82
2022/07/01 10:36:35;;;;;;;0.82;0.40;;;21.20;65.40;;;;;;4967957;28;20058;-82
2022/07/01 10:39:09;;;;;;;1.20;0.30;;;21.30;65.10;;;;;;5003388;28;20077;-81
2022/07/01 10:41:41;;;;;;;0.52;0.32;;;21.40;65.00;;;;;;4992012;28;20154;-82
2022/07/01 10:44:10;;;;;;;;;;;21.40;64.50;;;;;;4972013;28;20054;-83
2022/07/01 10:47:02;;;;;;;2.58;0.68;;;21.20;63.60;;;;;;4974716;28;20001;-84
2022/07/01 10:49:41;;;;;;;0.60;0.30;;;20.90;63.40;;;;;;4992722;28;20050;-82
2022/07/01 10:52:10;;;;;;;0.85;0.30;;;20.90;64.40;;;;;;4984321;28;20123;-84
2022/07/01 10:54:41;;;;;;;2.90;0.32;;;21.10;63.90;;;;;;5002671;28;20577;-81
2022/07/01 10:57:27;;;;;;;1.55;0.40;;;21.30;63.30;;;;;;5000798;28;20797;-82
2022/07/01 10:59:59;;;;;;;1.20;0.30;;;21.50;62.00;;;;;;4998922;28;20061;-82
2022/07/01 11:02:30;;;;;;;0.80;0.35;;;21.30;61.80;;;;;;4978942;28;20137;-82
2022/07/01 11:05:09;;;;;;;0.70;0.30;;;21.30;61.60;;;;;;5007222;28;20089;-83
2022/07/01 11:07:47;;;;;;;1.63;0.38;;;21.40;61.60;;;;;;4990928;28;20749;-83
2022/07/01 11:10:18;;;;;;;1.45;0.43;;;21.40;61.30;;;;;;4987745;28;20073;-83
2022/07/01 11:12:49;;;;;;;1.92;0.57;;;21.20;60.60;;;;;;4981889;28;20165;-83
2022/07/01 11:15:17;;;;;;;1.15;0.35;;;21.00;61.10;;;;;;4969066;28;20081;-84
2022/07/01 11:17:49;;;;;;;1.20;0.60;;;20.90;60.60;;;;;;4982607;28;20096;-84
2022/07/01 11:20:16;;;;;;;1.30;0.40;;;20.70;61.20;;;;;;4993600;28;20414;-83
2022/07/01 11:22:49;;;;;;;0.50;0.20;;;20.70;61.40;;;;;;4988384;28;20122;-84
2022/07/01 11:25:18;;;;;;;0.63;0.20;;;21.00;61.70;;;;;;4978660;28;20042;-83
2022/07/01 11:27:46;;;;;;;1.13;0.40;;;21.40;61.40;;;;;;4997840;28;20043;-83
2022/07/01 11:30:15;;;;;;;0.90;0.40;;;21.60;60.30;;;;;;4988147;28;20128;-84
2022/07/01 11:32:52;;;;;;;0.65;0.22;;;21.60;60.10;;;;;;4981747;28;20064;-84
2022/07/01 11:41:23;;;;;;;1.45;0.40;;;22.20;58.60;;;;;;4996773;28;20092;-88
2022/07/01 11:43:52;;;;;;;1.95;0.50;;;22.30;58.00;;;;;;5001120;28;20052;-88
2022/07/01 11:46:20;;;;;;;2.83;0.57;;;22.00;57.40;;;;;;5006815;28;20041;-88
2022/07/01 11:48:51;;;;;;;1.33;0.40;;;21.90;57.10;;;;;;4982021;28;20145;-87
2022/07/01 11:51:29;;;;;;;0.98;0.40;;;21.90;56.60;;;;;;4973273;28;20058;-86
2022/07/01 11:53:56;;;;;;;3.67;0.60;;;22.00;57.10;;;;;;5001054;28;20137;-87
2022/07/01 11:56:31;;;;;;;1.63;0.40;;;22.40;56.60;;;;;;4994276;28;20047;-85
2022/07/01 11:59:00;;;;;;;1.05;0.25;;;22.60;55.30;;;;;;5002101;28;20046;-86
2022/07/01 12:01:32;;;;;;;2.25;0.40;;;22.50;55.80;;;;;;4992300;28;20046;-84
2022/07/01 12:04:02;;;;;;;2.13;0.20;;;22.90;55.90;;;;;;4992289;28;20046;-84
2022/07/01 12:06:30;;;;;;;0.65;0.20;;;23.30;55.30;;;;;;5009496;28;20042;-84
2022/07/01 12:08:58;;;;;;;1.83;0.30;;;23.50;54.30;;;;;;4992308;28;20053;-84
2022/07/01 12:11:27;;;;;;;1.80;0.30;;;23.60;54.40;;;;;;4991340;28;20052;-85
2022/07/01 12:13:59;;;;;;;0.68;0.20;;;23.30;54.00;;;;;;4986766;28;20054;-82
2022/07/01 12:16:26;;;;;;;1.90;0.30;;;23.80;54.30;;;;;;4981313;28;20151;-85
2022/07/01 12:19:02;;;;;;;2.53;0.20;;;24.30;53.40;;;;;;4994395;28;20046;-84
2022/07/01 12:21:30;;;;;;;0.88;0.30;;;25.00;52.90;;;;;;4978578;28;20129;-86
2022/07/01 12:24:13;;;;;;;1.10;0.32;;;25.40;51.10;;;;;;4983146;28;20133;-83
2022/07/01 12:26:53;;;;;;;1.13;0.20;;;25.70;51.30;;;;;;4988912;28;20058;-83
2022/07/01 12:29:23;;;;;;;2.17;0.30;;;26.10;50.70;;;;;;5005189;28;20070;-88
2022/07/01 12:31:57;;;;;;;0.55;0.20;;;25.60;50.70;;;;;;4994114;28;20046;-84
2022/07/01 12:34:41;;;;;;;0.98;0.20;;;25.00;51.20;;;;;;4975683;28;20065;-84
2022/07/01 12:37:15;;;;;;;0.88;0.20;;;25.00;51.70;;;;;;4992120;28;20470;-85
2022/07/01 12:39:53;;;;;;;2.38;0.50;;;25.40;51.50;;;;;;4988692;28;20038;-83
2022/07/01 12:42:25;;;;;;;0.98;0.40;;;26.00;50.40;;;;;;4998236;28;20048;-82
2022/07/01 12:44:54;;;;;;;1.20;0.20;;;25.90;50.20;;;;;;5003318;28;20035;-82
2022/07/01 12:47:27;;;;;;;1.40;0.30;;;25.60;49.90;;;;;;4989999;28;20042;-82
2022/07/01 12:50:11;;;;;;;0.90;0.20;;;26.00;49.20;;;;;;4973790;28;20046;-84
2022/07/01 12:52:40;;;;;;;1.33;0.20;;;25.80;48.30;;;;;;5007978;28;20053;-85
2022/07/01 12:55:20;;;;;;;1.85;0.30;;;24.90;49.20;;;;;;4992180;28;20109;-85
2022/07/01 12:57:52;;;;;;;3.47;0.30;;;24.50;49.40;;;;;;5021232;28;20062;-87
2022/07/01 13:00:22;;;;;;;1.98;0.30;;;25.00;49.70;;;;;;4981420;28;20043;-83
2022/07/01 13:02:54;;;;;;;1.65;0.30;;;25.90;49.20;;;;;;4993250;28;20446;-84
2022/07/01 13:05:22;;;;;;;2.05;0.43;;;26.00;48.50;;;;;;5005785;28;20142;-82